Buckhorn, North Carolina
Current Conditions -  °F | °C
As of 12:56 PM on Friday 31 Oct 2014 (Local Time) from KIGX Reporting Station
Broken Clouds Broken Clouds  
Wind Chill: 59°   Ceiling: 4200
Heat Index: 59°   Visibility: 10mi
Dew Point: 40°   Wind: 0mph
Humidity: 49%   Direction: NA
Pressure: 29.9"   Gusts: NA
Location:  36.0756°N, 79.1903°W
Report Text: KIGX 311656Z AUTO 00000KT 10SM BKN042 15/04 A2990 RMK AO2 SLP122 T01500044
Loading
Personal Weather Stations






























Interactive Weather Map
Tropical Storm Tracking
New forecast layout! Learn more

10-Day Weather Forecast

Advertisements
Track Severe Weather on mobile